SAS7A EFHK-EDDH
Flight info
| Callsign | SAS7A |
|---|---|
| Flight time | 1h 36m |
| Altitude | 38000 |
| Route | NUNTO Y369 REKDO DCT KOSKA DCT GIMRU T503 MICOS N850 BOGMU BOGMU3S |
| Aircraft | A20N/M-SDE2E3FGHIRWXY/LB1 |
Departure
| Time | 2026-04-23 17:22 |
|---|---|
| Airport | Helsinki Vantaa Airport (EFHK) |
Arrival
| Time | 2026-04-23 18:58 |
|---|---|
| Airport | Hamburg Helmut Schmidt Airport (EDDH) |
| Time | Latitude | Longitude | Altitude | Speed | Heading |
|---|---|---|---|---|---|
| 2026-04-23 16:54 | 60.31903 | 24.96963 | 186 ft | 0 kts | 242° |
| 2026-04-23 17:11 | 60.31909 | 24.96988 | 186 ft | 2 kts | 242° |
| 2026-04-23 17:11 | 60.31916 | 24.97015 | 186 ft | 2 kts | 242° |
| 2026-04-23 17:11 | 60.31923 | 24.97042 | 186 ft | 2 kts | 260° |
| 2026-04-23 17:12 | 60.31923 | 24.97073 | 186 ft | 2 kts | 283° |
| 2026-04-23 17:12 | 60.31916 | 24.97101 | 186 ft | 2 kts | 308° |
| 2026-04-23 17:12 | 60.31905 | 24.97122 | 186 ft | 2 kts | 331° |
| 2026-04-23 17:12 | 60.31897 | 24.97129 | 186 ft | 1 kts | 345° |
| 2026-04-23 17:13 | 60.31892 | 24.97131 | 187 ft | 0 kts | 346° |
| 2026-04-23 17:14 | 60.31933 | 24.97082 | 185 ft | 12 kts | 331° |
| 2026-04-23 17:15 | 60.32014 | 24.96993 | 182 ft | 14 kts | 332° |
| 2026-04-23 17:15 | 60.32104 | 24.96897 | 178 ft | 15 kts | 332° |
| 2026-04-23 17:15 | 60.32203 | 24.96788 | 176 ft | 15 kts | 330° |
| 2026-04-23 17:15 | 60.32231 | 24.96631 | 179 ft | 12 kts | 240° |
| 2026-04-23 17:16 | 60.32174 | 24.96505 | 182 ft | 14 kts | 225° |
| 2026-04-23 17:16 | 60.32082 | 24.96301 | 185 ft | 23 kts | 227° |
| 2026-04-23 17:16 | 60.31972 | 24.96055 | 182 ft | 23 kts | 227° |
| 2026-04-23 17:16 | 60.31858 | 24.95807 | 176 ft | 23 kts | 228° |
| 2026-04-23 17:17 | 60.31752 | 24.95569 | 176 ft | 22 kts | 227° |
| 2026-04-23 17:17 | 60.31646 | 24.95340 | 180 ft | 23 kts | 226° |
| 2026-04-23 17:17 | 60.31574 | 24.95181 | 179 ft | 23 kts | 228° |
| 2026-04-23 17:17 | 60.31426 | 24.94849 | 169 ft | 26 kts | 227° |
| 2026-04-23 17:18 | 60.31169 | 24.94291 | 163 ft | 25 kts | 225° |
| 2026-04-23 17:18 | 60.31066 | 24.94069 | 163 ft | 20 kts | 229° |
| 2026-04-23 17:18 | 60.31048 | 24.93830 | 161 ft | 19 kts | 300° |
| 2026-04-23 17:19 | 60.31148 | 24.93692 | 160 ft | 14 kts | 8° |
| 2026-04-23 17:19 | 60.31171 | 24.93723 | 159 ft | 0 kts | 51° |
| 2026-04-23 17:19 | 60.31172 | 24.93726 | 159 ft | 0 kts | 48° |
| 2026-04-23 17:21 | 60.31184 | 24.93752 | 158 ft | 18 kts | 47° |
| 2026-04-23 17:21 | 60.31455 | 24.94340 | 168 ft | 92 kts | 47° |
| 2026-04-23 17:21 | 60.32800 | 24.97330 | 456 ft | 175 kts | 45° |
| 2026-04-23 17:22 | 60.33607 | 24.99122 | 1150 ft | 173 kts | 45° |
| 2026-04-23 17:22 | 60.35220 | 25.02671 | 2380 ft | 182 kts | 44° |
| 2026-04-23 17:23 | 60.37132 | 25.06862 | 3152 ft | 223 kts | 44° |
| 2026-04-23 17:23 | 60.38227 | 25.09278 | 3643 ft | 241 kts | 44° |
| 2026-04-23 17:23 | 60.41108 | 25.12801 | 5021 ft | 252 kts | 4° |
| 2026-04-23 17:24 | 60.42860 | 25.12948 | 5922 ft | 252 kts | 357° |
| 2026-04-23 17:24 | 60.44535 | 25.12068 | 6710 ft | 256 kts | 327° |
| 2026-04-23 17:24 | 60.46297 | 25.05933 | 8388 ft | 270 kts | 276° |
| 2026-04-23 17:25 | 60.44941 | 24.98739 | 9986 ft | 290 kts | 242° |
| 2026-04-23 17:25 | 60.43777 | 24.95257 | 10536 ft | 303 kts | 242° |
| 2026-04-23 17:26 | 60.41304 | 24.87752 | 11567 ft | 328 kts | 246° |
| 2026-04-23 17:26 | 60.39121 | 24.79650 | 12985 ft | 335 kts | 251° |
| 2026-04-23 17:27 | 60.36919 | 24.71212 | 14454 ft | 342 kts | 251° |
| 2026-04-23 17:27 | 60.35790 | 24.66953 | 15164 ft | 346 kts | 251° |
| 2026-04-23 17:27 | 60.34635 | 24.62627 | 15860 ft | 349 kts | 251° |
| 2026-04-23 17:27 | 60.33472 | 24.58300 | 16547 ft | 353 kts | 251° |
| 2026-04-23 17:28 | 60.32261 | 24.53818 | 17226 ft | 356 kts | 251° |
| 2026-04-23 17:28 | 60.31070 | 24.49418 | 17878 ft | 359 kts | 251° |
| 2026-04-23 17:28 | 60.29862 | 24.44969 | 18516 ft | 363 kts | 252° |
| 2026-04-23 17:28 | 60.28635 | 24.40454 | 19133 ft | 366 kts | 252° |
| 2026-04-23 17:29 | 60.27391 | 24.35886 | 19735 ft | 370 kts | 252° |
| 2026-04-23 17:29 | 60.26143 | 24.31308 | 20294 ft | 374 kts | 251° |
| 2026-04-23 17:29 | 60.23572 | 24.21927 | 21396 ft | 383 kts | 251° |
| 2026-04-23 17:30 | 60.22714 | 24.18806 | 21753 ft | 385 kts | 251° |
| 2026-04-23 17:30 | 60.19627 | 24.07615 | 22974 ft | 394 kts | 250° |
| 2026-04-23 17:30 | 60.18246 | 24.02629 | 23487 ft | 398 kts | 250° |
| 2026-04-23 17:31 | 60.16859 | 23.97630 | 23959 ft | 403 kts | 250° |
| 2026-04-23 17:31 | 60.15480 | 23.92670 | 24428 ft | 407 kts | 250° |
| 2026-04-23 17:31 | 60.14097 | 23.87715 | 24899 ft | 410 kts | 251° |
| 2026-04-23 17:31 | 60.12693 | 23.82690 | 25347 ft | 413 kts | 251° |
| 2026-04-23 17:32 | 60.11244 | 23.77517 | 25822 ft | 416 kts | 251° |
| 2026-04-23 17:32 | 60.09811 | 23.72411 | 26273 ft | 419 kts | 251° |
| 2026-04-23 17:32 | 60.08342 | 23.67188 | 26711 ft | 422 kts | 251° |
| 2026-04-23 17:32 | 60.06855 | 23.61909 | 27119 ft | 426 kts | 251° |
| 2026-04-23 17:33 | 60.05403 | 23.56767 | 27507 ft | 429 kts | 251° |
| 2026-04-23 17:33 | 60.03925 | 23.51546 | 27904 ft | 432 kts | 251° |
| 2026-04-23 17:33 | 60.02445 | 23.46331 | 28289 ft | 435 kts | 251° |
| 2026-04-23 17:33 | 60.00935 | 23.41022 | 28671 ft | 438 kts | 251° |
| 2026-04-23 17:34 | 59.99440 | 23.35774 | 29033 ft | 441 kts | 251° |
| 2026-04-23 17:34 | 59.97916 | 23.30425 | 29368 ft | 444 kts | 250° |
| 2026-04-23 17:34 | 59.94828 | 23.19660 | 30053 ft | 450 kts | 250° |
| 2026-04-23 17:35 | 59.93287 | 23.14302 | 30391 ft | 452 kts | 250° |
| 2026-04-23 17:35 | 59.90136 | 23.03394 | 31068 ft | 457 kts | 250° |
| 2026-04-23 17:35 | 59.88549 | 22.97920 | 31384 ft | 458 kts | 250° |
| 2026-04-23 17:36 | 59.86953 | 22.92429 | 31688 ft | 459 kts | 250° |
| 2026-04-23 17:36 | 59.85354 | 22.86939 | 31993 ft | 460 kts | 250° |
| 2026-04-23 17:36 | 59.83735 | 22.81400 | 32369 ft | 459 kts | 250° |
| 2026-04-23 17:36 | 59.82151 | 22.75997 | 32767 ft | 456 kts | 250° |
| 2026-04-23 17:37 | 59.80559 | 22.70576 | 33143 ft | 454 kts | 250° |
| 2026-04-23 17:37 | 59.78961 | 22.65143 | 33497 ft | 453 kts | 250° |
| 2026-04-23 17:37 | 59.75814 | 22.54478 | 34167 ft | 450 kts | 250° |
| 2026-04-23 17:38 | 59.74235 | 22.49140 | 34475 ft | 449 kts | 250° |
| 2026-04-23 17:38 | 59.72653 | 22.43802 | 34759 ft | 448 kts | 250° |
| 2026-04-23 17:38 | 59.71086 | 22.38529 | 35025 ft | 447 kts | 250° |
| 2026-04-23 17:38 | 59.69490 | 22.33174 | 35295 ft | 447 kts | 249° |
| 2026-04-23 17:39 | 59.67923 | 22.27929 | 35548 ft | 446 kts | 249° |
| 2026-04-23 17:39 | 59.66340 | 22.22643 | 35784 ft | 446 kts | 249° |
| 2026-04-23 17:39 | 59.64750 | 22.17342 | 36017 ft | 445 kts | 249° |
| 2026-04-23 17:39 | 59.63167 | 22.12077 | 36247 ft | 445 kts | 249° |
| 2026-04-23 17:40 | 59.61581 | 22.06819 | 36462 ft | 444 kts | 249° |
| 2026-04-23 17:40 | 59.60021 | 22.01657 | 36662 ft | 444 kts | 249° |
| 2026-04-23 17:40 | 59.58424 | 21.96384 | 36877 ft | 444 kts | 249° |
| 2026-04-23 17:40 | 59.56853 | 21.91209 | 37053 ft | 444 kts | 249° |
| 2026-04-23 17:41 | 59.55268 | 21.85993 | 37194 ft | 445 kts | 249° |
| 2026-04-23 17:41 | 59.52080 | 21.75539 | 37427 ft | 447 kts | 249° |
| 2026-04-23 17:41 | 59.50470 | 21.70283 | 37576 ft | 448 kts | 249° |
| 2026-04-23 17:42 | 59.47253 | 21.59821 | 37862 ft | 448 kts | 249° |
| 2026-04-23 17:42 | 59.45630 | 21.54556 | 37897 ft | 450 kts | 249° |
| 2026-04-23 17:43 | 59.42380 | 21.44053 | 37903 ft | 450 kts | 249° |
| 2026-04-23 17:43 | 59.39131 | 21.33603 | 37904 ft | 450 kts | 248° |
| 2026-04-23 17:44 | 59.35847 | 21.23083 | 37911 ft | 451 kts | 248° |
| 2026-04-23 17:44 | 59.30944 | 21.07472 | 37937 ft | 450 kts | 248° |
| 2026-04-23 17:45 | 59.26001 | 20.91837 | 37954 ft | 449 kts | 248° |
| 2026-04-23 17:46 | 59.20949 | 20.75963 | 37959 ft | 449 kts | 248° |
| 2026-04-23 17:46 | 59.17501 | 20.65723 | 37959 ft | 455 kts | 243° |
| 2026-04-23 17:47 | 59.13605 | 20.55964 | 37960 ft | 457 kts | 242° |
| 2026-04-23 17:48 | 59.07682 | 20.41377 | 37960 ft | 457 kts | 242° |
| 2026-04-23 17:48 | 59.03741 | 20.31701 | 37960 ft | 457 kts | 240° |
| 2026-04-23 17:49 | 58.99806 | 20.22077 | 37959 ft | 457 kts | 241° |
| 2026-04-23 17:49 | 58.95849 | 20.12438 | 37959 ft | 457 kts | 241° |
| 2026-04-23 17:50 | 58.91877 | 20.02797 | 37959 ft | 457 kts | 241° |
| 2026-04-23 17:50 | 58.85962 | 19.88520 | 37958 ft | 455 kts | 241° |
| 2026-04-23 17:51 | 58.81983 | 19.78959 | 37958 ft | 456 kts | 241° |
| 2026-04-23 17:52 | 58.75982 | 19.64614 | 37958 ft | 457 kts | 241° |
| 2026-04-23 17:52 | 58.69867 | 19.50088 | 37959 ft | 458 kts | 241° |
| 2026-04-23 17:53 | 58.63515 | 19.35099 | 37970 ft | 458 kts | 241° |
| 2026-04-23 17:54 | 58.59478 | 19.25615 | 37988 ft | 459 kts | 240° |
| 2026-04-23 17:54 | 58.53382 | 19.11376 | 38008 ft | 459 kts | 240° |
| 2026-04-23 17:55 | 58.47304 | 18.97267 | 38013 ft | 458 kts | 240° |
| 2026-04-23 17:56 | 58.43212 | 18.87810 | 38013 ft | 460 kts | 240° |
| 2026-04-23 17:56 | 58.37064 | 18.73678 | 38014 ft | 460 kts | 240° |
| 2026-04-23 17:57 | 58.32913 | 18.64184 | 38014 ft | 460 kts | 240° |
| 2026-04-23 17:58 | 58.26662 | 18.49955 | 38014 ft | 461 kts | 240° |
| 2026-04-23 17:58 | 58.22485 | 18.40496 | 38014 ft | 461 kts | 240° |
| 2026-04-23 17:59 | 58.18288 | 18.31031 | 38013 ft | 462 kts | 239° |
| 2026-04-23 17:59 | 58.14131 | 18.21690 | 38014 ft | 464 kts | 239° |
| 2026-04-23 18:00 | 58.09972 | 18.12384 | 38014 ft | 464 kts | 239° |
| 2026-04-23 18:00 | 58.05823 | 18.03139 | 38014 ft | 464 kts | 239° |
| 2026-04-23 18:01 | 58.01645 | 17.93867 | 38014 ft | 463 kts | 239° |
| 2026-04-23 18:01 | 57.97468 | 17.84630 | 38014 ft | 463 kts | 239° |
| 2026-04-23 18:02 | 57.93274 | 17.75392 | 38014 ft | 463 kts | 239° |
| 2026-04-23 18:02 | 57.89099 | 17.66231 | 38009 ft | 463 kts | 239° |
| 2026-04-23 18:03 | 57.84878 | 17.57159 | 38013 ft | 462 kts | 238° |
| 2026-04-23 18:03 | 57.80616 | 17.48074 | 38013 ft | 462 kts | 238° |
| 2026-04-23 18:04 | 57.76387 | 17.39080 | 38014 ft | 462 kts | 238° |
| 2026-04-23 18:04 | 57.72141 | 17.30078 | 38014 ft | 462 kts | 237° |
| 2026-04-23 18:05 | 57.67916 | 17.21156 | 38014 ft | 461 kts | 237° |
| 2026-04-23 18:05 | 57.63660 | 17.12200 | 38017 ft | 460 kts | 237° |
| 2026-04-23 18:06 | 57.59423 | 17.03322 | 38023 ft | 459 kts | 237° |
| 2026-04-23 18:06 | 57.55152 | 16.94404 | 38031 ft | 457 kts | 237° |
| 2026-04-23 18:07 | 57.50912 | 16.85583 | 38021 ft | 457 kts | 237° |
| 2026-04-23 18:07 | 57.46683 | 16.76815 | 38013 ft | 457 kts | 237° |
| 2026-04-23 18:08 | 57.43146 | 16.69511 | 38012 ft | 456 kts | 237° |
| 2026-04-23 18:08 | 57.38213 | 16.59361 | 38013 ft | 455 kts | 237° |
| 2026-04-23 18:09 | 57.33958 | 16.50643 | 38023 ft | 455 kts | 237° |
| 2026-04-23 18:09 | 57.29675 | 16.41897 | 38034 ft | 455 kts | 237° |
| 2026-04-23 18:10 | 57.25425 | 16.33248 | 38039 ft | 455 kts | 236° |
| 2026-04-23 18:10 | 57.21141 | 16.24565 | 38041 ft | 455 kts | 236° |
| 2026-04-23 18:11 | 57.16866 | 16.15936 | 38042 ft | 455 kts | 236° |
| 2026-04-23 18:11 | 57.12608 | 16.07370 | 38042 ft | 455 kts | 236° |
| 2026-04-23 18:12 | 57.08317 | 15.98767 | 38043 ft | 455 kts | 235° |
| 2026-04-23 18:12 | 57.04101 | 15.90344 | 38042 ft | 452 kts | 235° |
| 2026-04-23 18:13 | 56.99824 | 15.81837 | 38041 ft | 452 kts | 235° |
| 2026-04-23 18:13 | 56.95554 | 15.73369 | 38042 ft | 452 kts | 235° |
| 2026-04-23 18:14 | 56.91312 | 15.64991 | 38042 ft | 452 kts | 235° |
| 2026-04-23 18:14 | 56.87043 | 15.56589 | 38036 ft | 452 kts | 235° |
| 2026-04-23 18:15 | 56.82742 | 15.48154 | 38031 ft | 452 kts | 235° |
| 2026-04-23 18:15 | 56.78462 | 15.39789 | 38023 ft | 452 kts | 235° |
| 2026-04-23 18:16 | 56.74189 | 15.31469 | 38019 ft | 452 kts | 234° |
| 2026-04-23 18:16 | 56.69880 | 15.23109 | 38018 ft | 453 kts | 234° |
| 2026-04-23 18:17 | 56.63429 | 15.10648 | 38019 ft | 452 kts | 233° |
| 2026-04-23 18:17 | 56.59114 | 15.02349 | 38019 ft | 453 kts | 233° |
| 2026-04-23 18:18 | 56.54785 | 14.94055 | 38021 ft | 452 kts | 233° |
| 2026-04-23 18:18 | 56.50466 | 14.85809 | 38022 ft | 452 kts | 233° |
| 2026-04-23 18:19 | 56.46138 | 14.77574 | 38022 ft | 452 kts | 233° |
| 2026-04-23 18:19 | 56.41828 | 14.69402 | 38026 ft | 452 kts | 233° |
| 2026-04-23 18:20 | 56.37532 | 14.61286 | 38032 ft | 451 kts | 232° |
| 2026-04-23 18:20 | 56.33146 | 14.53028 | 38040 ft | 452 kts | 232° |
| 2026-04-23 18:21 | 56.28798 | 14.44871 | 38048 ft | 452 kts | 232° |
| 2026-04-23 18:21 | 56.24477 | 14.36794 | 38059 ft | 452 kts | 232° |
| 2026-04-23 18:22 | 56.20126 | 14.28688 | 38064 ft | 453 kts | 231° |
| 2026-04-23 18:22 | 56.15749 | 14.20566 | 38067 ft | 453 kts | 231° |
| 2026-04-23 18:23 | 56.09164 | 14.08397 | 38068 ft | 452 kts | 231° |
| 2026-04-23 18:24 | 56.02585 | 13.96302 | 38068 ft | 452 kts | 231° |
| 2026-04-23 18:25 | 55.96017 | 13.84288 | 38069 ft | 452 kts | 231° |
| 2026-04-23 18:25 | 55.91616 | 13.76272 | 38068 ft | 452 kts | 231° |
| 2026-04-23 18:26 | 55.87235 | 13.68341 | 38073 ft | 450 kts | 232° |
| 2026-04-23 18:26 | 55.82868 | 13.60433 | 38085 ft | 449 kts | 232° |
| 2026-04-23 18:27 | 55.78511 | 13.52571 | 38092 ft | 449 kts | 231° |
| 2026-04-23 18:27 | 55.74137 | 13.44708 | 38095 ft | 448 kts | 231° |
| 2026-04-23 18:28 | 55.69755 | 13.36861 | 38096 ft | 448 kts | 231° |
| 2026-04-23 18:28 | 55.65367 | 13.29029 | 38097 ft | 448 kts | 230° |
| 2026-04-23 18:29 | 55.60979 | 13.21229 | 38097 ft | 448 kts | 230° |
| 2026-04-23 18:29 | 55.56600 | 13.13488 | 38097 ft | 448 kts | 230° |
| 2026-04-23 18:30 | 55.52201 | 13.05707 | 38102 ft | 448 kts | 230° |
| 2026-04-23 18:30 | 55.47848 | 12.98005 | 38109 ft | 447 kts | 230° |
| 2026-04-23 18:31 | 55.43476 | 12.90268 | 38117 ft | 446 kts | 230° |
| 2026-04-23 18:31 | 55.39113 | 12.82517 | 38121 ft | 445 kts | 230° |
| 2026-04-23 18:32 | 55.34788 | 12.74851 | 38016 ft | 440 kts | 230° |
| 2026-04-23 18:32 | 55.32636 | 12.71051 | 37804 ft | 433 kts | 230° |
| 2026-04-23 18:32 | 55.30528 | 12.67342 | 37232 ft | 434 kts | 230° |
| 2026-04-23 18:32 | 55.28395 | 12.63592 | 36333 ft | 443 kts | 230° |
| 2026-04-23 18:33 | 55.26186 | 12.59763 | 35720 ft | 443 kts | 230° |
| 2026-04-23 18:33 | 55.24022 | 12.56050 | 35364 ft | 439 kts | 230° |
| 2026-04-23 18:33 | 55.21822 | 12.52275 | 34544 ft | 445 kts | 230° |
| 2026-04-23 18:33 | 55.19614 | 12.48486 | 33792 ft | 449 kts | 229° |
| 2026-04-23 18:34 | 55.17392 | 12.44681 | 33254 ft | 446 kts | 229° |
| 2026-04-23 18:34 | 55.15211 | 12.40955 | 32790 ft | 443 kts | 229° |
| 2026-04-23 18:34 | 55.13016 | 12.37207 | 32325 ft | 439 kts | 229° |
| 2026-04-23 18:34 | 55.10841 | 12.33500 | 31844 ft | 436 kts | 229° |
| 2026-04-23 18:35 | 55.08668 | 12.29801 | 31366 ft | 433 kts | 229° |
| 2026-04-23 18:35 | 55.06548 | 12.26196 | 30904 ft | 430 kts | 228° |
| 2026-04-23 18:35 | 55.04408 | 12.22561 | 30437 ft | 426 kts | 228° |
| 2026-04-23 18:35 | 55.02294 | 12.18979 | 29976 ft | 423 kts | 228° |
| 2026-04-23 18:36 | 55.00189 | 12.15416 | 29512 ft | 420 kts | 228° |
| 2026-04-23 18:36 | 54.98071 | 12.11873 | 29047 ft | 418 kts | 227° |
| 2026-04-23 18:36 | 54.95919 | 12.08476 | 28602 ft | 415 kts | 226° |
| 2026-04-23 18:36 | 54.93757 | 12.05131 | 28159 ft | 412 kts | 226° |
| 2026-04-23 18:37 | 54.91626 | 12.01842 | 27711 ft | 409 kts | 226° |
| 2026-04-23 18:37 | 54.89523 | 11.98586 | 27270 ft | 405 kts | 225° |
| 2026-04-23 18:37 | 54.87412 | 11.95312 | 26862 ft | 401 kts | 225° |
| 2026-04-23 18:37 | 54.85361 | 11.92136 | 26440 ft | 397 kts | 225° |
| 2026-04-23 18:38 | 54.83291 | 11.88934 | 25987 ft | 394 kts | 226° |
| 2026-04-23 18:38 | 54.81273 | 11.85812 | 25547 ft | 391 kts | 226° |
| 2026-04-23 18:38 | 54.79247 | 11.82682 | 25112 ft | 388 kts | 226° |
| 2026-04-23 18:38 | 54.77230 | 11.79568 | 24679 ft | 385 kts | 226° |
| 2026-04-23 18:39 | 54.75265 | 11.76535 | 24262 ft | 381 kts | 226° |
| 2026-04-23 18:39 | 54.73269 | 11.73461 | 23834 ft | 378 kts | 226° |
| 2026-04-23 18:39 | 54.71326 | 11.70472 | 23386 ft | 377 kts | 226° |
| 2026-04-23 18:39 | 54.69387 | 11.67490 | 22948 ft | 374 kts | 226° |
| 2026-04-23 18:40 | 54.67432 | 11.64491 | 22521 ft | 372 kts | 226° |
| 2026-04-23 18:40 | 54.65512 | 11.61549 | 22095 ft | 369 kts | 226° |
| 2026-04-23 18:40 | 54.63615 | 11.58646 | 21664 ft | 367 kts | 225° |
| 2026-04-23 18:40 | 54.61698 | 11.55716 | 21238 ft | 365 kts | 226° |
| 2026-04-23 18:41 | 54.59805 | 11.52825 | 20816 ft | 362 kts | 225° |
| 2026-04-23 18:41 | 54.57951 | 11.49999 | 20404 ft | 359 kts | 225° |
| 2026-04-23 18:41 | 54.56094 | 11.47172 | 19988 ft | 357 kts | 225° |
| 2026-04-23 18:41 | 54.54236 | 11.44347 | 19573 ft | 354 kts | 225° |
| 2026-04-23 18:42 | 54.52388 | 11.41541 | 19148 ft | 352 kts | 225° |
| 2026-04-23 18:42 | 54.50581 | 11.38802 | 18730 ft | 350 kts | 225° |
| 2026-04-23 18:42 | 54.48757 | 11.36036 | 18328 ft | 347 kts | 225° |
| 2026-04-23 18:42 | 54.46948 | 11.33301 | 17930 ft | 345 kts | 224° |
| 2026-04-23 18:43 | 54.45164 | 11.30606 | 17533 ft | 343 kts | 224° |
| 2026-04-23 18:43 | 54.43367 | 11.27895 | 17125 ft | 341 kts | 225° |
| 2026-04-23 18:43 | 54.41608 | 11.25244 | 16720 ft | 339 kts | 225° |
| 2026-04-23 18:43 | 54.39842 | 11.22584 | 16336 ft | 337 kts | 225° |
| 2026-04-23 18:44 | 54.38092 | 11.19953 | 15945 ft | 335 kts | 225° |
| 2026-04-23 18:44 | 54.36335 | 11.17314 | 15542 ft | 338 kts | 225° |
| 2026-04-23 18:44 | 54.34575 | 11.14671 | 15140 ft | 338 kts | 225° |
| 2026-04-23 18:44 | 54.32803 | 11.12017 | 14730 ft | 336 kts | 225° |
| 2026-04-23 18:45 | 54.31065 | 11.09417 | 14325 ft | 335 kts | 225° |
| 2026-04-23 18:45 | 54.29314 | 11.06801 | 13924 ft | 332 kts | 225° |
| 2026-04-23 18:45 | 54.27571 | 11.04198 | 13521 ft | 331 kts | 225° |
| 2026-04-23 18:45 | 54.25828 | 11.01599 | 13117 ft | 329 kts | 225° |
| 2026-04-23 18:46 | 54.24108 | 10.99036 | 12720 ft | 327 kts | 225° |
| 2026-04-23 18:46 | 54.22395 | 10.96488 | 12328 ft | 326 kts | 225° |
| 2026-04-23 18:46 | 54.20688 | 10.93949 | 11938 ft | 324 kts | 225° |
| 2026-04-23 18:46 | 54.19005 | 10.91450 | 11562 ft | 322 kts | 225° |
| 2026-04-23 18:47 | 54.17333 | 10.88971 | 11198 ft | 320 kts | 225° |
| 2026-04-23 18:47 | 54.15644 | 10.86466 | 10832 ft | 322 kts | 225° |
| 2026-04-23 18:47 | 54.13966 | 10.83983 | 10473 ft | 320 kts | 225° |
| 2026-04-23 18:47 | 54.12289 | 10.81503 | 10314 ft | 319 kts | 225° |
| 2026-04-23 18:48 | 54.10609 | 10.79024 | 10215 ft | 318 kts | 225° |
| 2026-04-23 18:48 | 54.08969 | 10.76607 | 10205 ft | 310 kts | 225° |
| 2026-04-23 18:48 | 54.07367 | 10.74256 | 10203 ft | 297 kts | 225° |
| 2026-04-23 18:48 | 54.05796 | 10.71946 | 10208 ft | 297 kts | 226° |
| 2026-04-23 18:49 | 54.04252 | 10.69675 | 10204 ft | 296 kts | 226° |
| 2026-04-23 18:49 | 54.02704 | 10.67397 | 10061 ft | 292 kts | 226° |
| 2026-04-23 18:49 | 54.01175 | 10.65154 | 9685 ft | 292 kts | 226° |
| 2026-04-23 18:49 | 53.99629 | 10.62883 | 9282 ft | 292 kts | 226° |
| 2026-04-23 18:50 | 53.98611 | 10.61392 | 9030 ft | 291 kts | 226° |
| 2026-04-23 18:50 | 53.96586 | 10.58428 | 8541 ft | 290 kts | 226° |
| 2026-04-23 18:50 | 53.95050 | 10.56185 | 8176 ft | 288 kts | 226° |
| 2026-04-23 18:50 | 53.93543 | 10.53988 | 7871 ft | 284 kts | 226° |
| 2026-04-23 18:51 | 53.92058 | 10.51815 | 7438 ft | 286 kts | 226° |
| 2026-04-23 18:51 | 53.90543 | 10.49606 | 7051 ft | 285 kts | 226° |
| 2026-04-23 18:51 | 53.89067 | 10.47464 | 6758 ft | 281 kts | 226° |
| 2026-04-23 18:51 | 53.87578 | 10.45298 | 6372 ft | 280 kts | 226° |
| 2026-04-23 18:52 | 53.86094 | 10.43139 | 5920 ft | 283 kts | 226° |
| 2026-04-23 18:52 | 53.84508 | 10.41177 | 5579 ft | 283 kts | 218° |
| 2026-04-23 18:52 | 53.82903 | 10.39186 | 5263 ft | 275 kts | 228° |
| 2026-04-23 18:52 | 53.81631 | 10.36897 | 4957 ft | 263 kts | 238° |
| 2026-04-23 18:53 | 53.80547 | 10.34481 | 4451 ft | 254 kts | 239° |
| 2026-04-23 18:53 | 53.79439 | 10.32015 | 3995 ft | 255 kts | 237° |
| 2026-04-23 18:53 | 53.78306 | 10.29614 | 3704 ft | 252 kts | 236° |
| 2026-04-23 18:53 | 53.77203 | 10.27360 | 3443 ft | 248 kts | 235° |
| 2026-04-23 18:54 | 53.76099 | 10.25144 | 3215 ft | 242 kts | 235° |
| 2026-04-23 18:54 | 53.75039 | 10.23033 | 3170 ft | 228 kts | 235° |
| 2026-04-23 18:54 | 53.74012 | 10.20986 | 3127 ft | 216 kts | 236° |
| 2026-04-23 18:54 | 53.73235 | 10.19428 | 2968 ft | 212 kts | 236° |
| 2026-04-23 18:55 | 53.72140 | 10.17217 | 2652 ft | 209 kts | 236° |
| 2026-04-23 18:55 | 53.71217 | 10.15360 | 2392 ft | 198 kts | 236° |
| 2026-04-23 18:55 | 53.70369 | 10.13658 | 2180 ft | 184 kts | 236° |
| 2026-04-23 18:55 | 53.69568 | 10.12041 | 1936 ft | 172 kts | 236° |
| 2026-04-23 18:56 | 53.69073 | 10.11044 | 1772 ft | 163 kts | 236° |
| 2026-04-23 18:56 | 53.68153 | 10.09183 | 1436 ft | 146 kts | 234° |
| 2026-04-23 18:56 | 53.67539 | 10.07941 | 1239 ft | 131 kts | 234° |
| 2026-04-23 18:56 | 53.66957 | 10.06757 | 1091 ft | 132 kts | 232° |
| 2026-04-23 18:57 | 53.66367 | 10.05559 | 936 ft | 134 kts | 232° |
| 2026-04-23 18:57 | 53.65774 | 10.04364 | 746 ft | 131 kts | 234° |
| 2026-04-23 18:57 | 53.65192 | 10.03187 | 583 ft | 129 kts | 233° |
| 2026-04-23 18:57 | 53.64617 | 10.02024 | 400 ft | 126 kts | 232° |
| 2026-04-23 18:58 | 53.64049 | 10.00891 | 215 ft | 128 kts | 233° |
| 2026-04-23 18:58 | 53.63479 | 9.99734 | 69 ft | 127 kts | 234° |
| 2026-04-23 18:58 | 53.62994 | 9.98731 | 62 ft | 89 kts | 230° |
| 2026-04-23 18:58 | 53.62704 | 9.98153 | 62 ft | 41 kts | 231° |
| 2026-04-23 18:59 | 53.62536 | 9.97821 | 62 ft | 22 kts | 213° |
| 2026-04-23 18:59 | 53.62428 | 9.97880 | 62 ft | 15 kts | 96° |
| 2026-04-23 18:59 | 53.62451 | 9.98058 | 62 ft | 15 kts | 64° |
| 2026-04-23 18:59 | 53.62518 | 9.98211 | 62 ft | 16 kts | 50° |
| 2026-04-23 19:00 | 53.62593 | 9.98356 | 62 ft | 16 kts | 49° |
| 2026-04-23 19:00 | 53.62670 | 9.98505 | 62 ft | 17 kts | 49° |
| 2026-04-23 19:00 | 53.62746 | 9.98662 | 62 ft | 17 kts | 50° |
| 2026-04-23 19:00 | 53.62825 | 9.98822 | 62 ft | 17 kts | 50° |
| 2026-04-23 19:01 | 53.62903 | 9.98982 | 62 ft | 17 kts | 50° |
| 2026-04-23 19:01 | 53.62983 | 9.99143 | 62 ft | 17 kts | 50° |
| 2026-04-23 19:01 | 53.63042 | 9.99267 | 62 ft | 11 kts | 53° |
| 2026-04-23 19:01 | 53.63070 | 9.99335 | 62 ft | 4 kts | 55° |
| 2026-04-23 19:02 | 53.63077 | 9.99353 | 62 ft | 0 kts | 55° |
| 2026-04-23 19:03 | 53.63083 | 9.99365 | 62 ft | 9 kts | 55° |
| 2026-04-23 19:03 | 53.63132 | 9.99475 | 62 ft | 12 kts | 52° |
| 2026-04-23 19:04 | 53.63184 | 9.99596 | 62 ft | 13 kts | 55° |
| 2026-04-23 19:04 | 53.63202 | 9.99639 | 62 ft | 0 kts | 54° |
| 2026-04-23 19:04 | 53.63205 | 9.99646 | 62 ft | 1 kts | 54° |
| 2026-04-23 19:04 | 53.63208 | 9.99654 | 62 ft | 0 kts | 54° |
| 2026-04-23 19:05 | 53.63216 | 9.99671 | 62 ft | 9 kts | 55° |
| 2026-04-23 19:05 | 53.63273 | 9.99752 | 62 ft | 11 kts | 42° |
| 2026-04-23 19:05 | 53.63334 | 9.99867 | 62 ft | 13 kts | 50° |
| 2026-04-23 19:06 | 53.63392 | 9.99985 | 62 ft | 12 kts | 51° |
| 2026-04-23 19:06 | 53.63440 | 10.00108 | 62 ft | 12 kts | 75° |
| 2026-04-23 19:06 | 53.63448 | 10.00248 | 62 ft | 11 kts | 88° |
| 2026-04-23 19:06 | 53.63451 | 10.00319 | 62 ft | 0 kts | 86° |
| 2026-04-23 19:07 | 53.63451 | 10.00321 | 62 ft | 0 kts | 86° |